Time;durP1;ratioP1;P1;durP2;ratioP2;P2;SDS_P1;SDS_P2;PMS_P1;PMS_P2;Temp;Humidity;BMP_temperature;BMP_pressure;BME280_temperature;BME280_humidity;BME280_pressure;Samples;Min_cycle;Max_cycle;Signal;HPM_P1;HPM_P2
2022/09/23 00:00:42;;;;;;;5.03;3.33;;;;;;;;;;5035506;28;87193;-66
2022/09/23 00:03:12;;;;;;;4.87;3.40;;;;;;;;;;5049046;27;92945;-66
2022/09/23 00:05:40;;;;;;;3.30;2.40;;;;;;;;;;5061033;27;89757;-66
2022/09/23 00:08:08;;;;;;;5.17;2.80;;;;;;;;;;5063532;27;86925;-67
2022/09/23 00:10:37;;;;;;;5.00;2.93;;;;;;;;;;5063656;27;87099;-66
2022/09/23 00:13:05;;;;;;;5.00;2.67;;;;;;;;;;5061980;27;89067;-65
2022/09/23 00:15:38;;;;;;;4.40;2.47;;;;;;;;;;5063216;27;88698;-66
2022/09/23 00:18:06;;;;;;;3.90;2.53;;;;;;;;;;5063579;27;86918;-66
2022/09/23 00:20:36;;;;;;;3.03;2.23;;;;;;;;;;5063638;27;87020;-66
2022/09/23 00:23:04;;;;;;;6.07;2.63;;;;;;;;;;5062711;27;90141;-66
2022/09/23 00:25:33;;;;;;;5.30;2.70;;;;;;;;;;5062732;27;89833;-66
2022/09/23 00:28:02;;;;;;;3.80;2.63;;;;;;;;;;5063846;27;86853;-66
2022/09/23 00:30:31;;;;;;;3.70;2.47;;;;;;;;;;5063264;27;86915;-66
2022/09/23 00:32:59;;;;;;;2.63;1.87;;;;;;;;;;5061785;27;89480;-65
2022/09/23 00:35:27;;;;;;;3.23;2.60;;;;;;;;;;5062719;27;89220;-66
2022/09/23 00:37:57;;;;;;;3.87;2.43;;;;;;;;;;5055408;27;87734;-66
2022/09/23 00:40:25;;;;;;;2.10;1.70;;;;;;;;;;5063678;27;86370;-66
2022/09/23 00:42:53;;;;;;;2.30;1.80;;;;;;;;;;5062514;27;88877;-67
2022/09/23 00:45:22;;;;;;;3.47;2.50;;;;;;;;;;5063602;27;88591;-66
2022/09/23 00:47:51;;;;;;;3.43;2.17;;;;;;;;;;5062504;27;87977;-67
2022/09/23 00:50:22;;;;;;;3.07;2.03;;;;;;;;;;5062678;27;87028;-66
2022/09/23 00:52:50;;;;;;;3.53;2.07;;;;;;;;;;5055329;27;89207;-66
2022/09/23 00:55:20;;;;;;;3.10;2.00;;;;;;;;;;5057725;27;91348;-66
2022/09/23 00:57:48;;;;;;;4.33;2.50;;;;;;;;;;5062337;27;86979;-66
2022/09/23 01:00:17;;;;;;;3.37;2.40;;;;;;;;;;5059547;27;87080;-66
2022/09/23 01:02:45;;;;;;;2.97;1.77;;;;;;;;;;5055570;27;87154;-66
2022/09/23 01:05:13;;;;;;;5.63;2.40;;;;;;;;;;5042726;27;88922;-66
2022/09/23 01:07:42;;;;;;;3.87;2.53;;;;;;;;;;5027303;27;86977;-66
2022/09/23 01:10:10;;;;;;;5.47;3.00;;;;;;;;;;5042346;27;86968;-66
2022/09/23 01:12:44;;;;;;;3.87;2.40;;;;;;;;;;5052820;27;90230;-66
2022/09/23 01:15:15;;;;;;;4.23;2.57;;;;;;;;;;5061173;27;89561;-66
2022/09/23 01:17:46;;;;;;;3.07;2.50;;;;;;;;;;5058851;27;86891;-66
2022/09/23 01:20:27;;;;;;;4.83;3.10;;;;;;;;;;5043349;27;86820;-66
2022/09/23 01:22:57;;;;;;;4.17;2.50;;;;;;;;;;5054063;27;88368;-66
2022/09/23 01:25:28;;;;;;;5.20;3.33;;;;;;;;;;5044922;27;88624;-66
2022/09/23 01:28:05;;;;;;;5.83;3.00;;;;;;;;;;5042526;27;86735;-66
2022/09/23 01:30:38;;;;;;;3.07;2.77;;;;;;;;;;5042276;27;86217;-66
2022/09/23 01:33:10;;;;;;;3.90;3.03;;;;;;;;;;5062482;27;88624;-66
2022/09/23 01:35:41;;;;;;;4.87;2.70;;;;;;;;;;5047819;27;88054;-66
2022/09/23 01:38:12;;;;;;;4.20;3.20;;;;;;;;;;5060594;27;87953;-66
2022/09/23 01:40:44;;;;;;;5.47;3.60;;;;;;;;;;5059463;27;86882;-66
2022/09/23 01:43:14;;;;;;;6.33;3.70;;;;;;;;;;5043378;27;89113;-66
2022/09/23 01:45:44;;;;;;;3.27;2.73;;;;;;;;;;5055596;27;88874;-66
2022/09/23 01:48:14;;;;;;;6.70;3.83;;;;;;;;;;5048637;27;86998;-66
2022/09/23 01:50:58;;;;;;;4.50;3.07;;;;;;;;;;5051369;27;87065;-66
2022/09/23 01:53:29;;;;;;;3.80;3.40;;;;;;;;;;5041338;28;89551;-66
2022/09/23 01:55:59;;;;;;;6.23;4.33;;;;;;;;;;5041734;28;88628;-66
2022/09/23 01:58:28;;;;;;;3.83;3.40;;;;;;;;;;5042169;27;88483;-66
2022/09/23 02:00:58;;;;;;;7.37;4.47;;;;;;;;;;5042400;28;87119;-65
2022/09/23 02:03:27;;;;;;;4.47;3.70;;;;;;;;;;5055255;27;90382;-65
2022/09/23 02:05:56;;;;;;;8.07;4.77;;;;;;;;;;5051757;27;89730;-67
2022/09/23 02:08:25;;;;;;;6.33;4.00;;;;;;;;;;5051910;27;86967;-65
2022/09/23 02:10:54;;;;;;;7.80;4.60;;;;;;;;;;5061535;27;88419;-65
2022/09/23 02:13:24;;;;;;;8.23;4.90;;;;;;;;;;5062173;27;89016;-66
2022/09/23 02:15:53;;;;;;;5.47;3.97;;;;;;;;;;5059275;27;88648;-66
2022/09/23 02:18:23;;;;;;;5.33;3.90;;;;;;;;;;5062096;27;87069;-66
2022/09/23 02:20:51;;;;;;;5.00;3.67;;;;;;;;;;5042728;27;86323;-66
2022/09/23 02:23:20;;;;;;;6.93;5.27;;;;;;;;;;5060837;27;89052;-66
2022/09/23 02:25:50;;;;;;;6.33;4.93;;;;;;;;;;5046922;27;87062;-66
2022/09/23 02:28:19;;;;;;;7.70;4.90;;;;;;;;;;5041039;27;87992;-65
2022/09/23 02:30:48;;;;;;;6.97;4.77;;;;;;;;;;5042762;27;87151;-66
2022/09/23 02:33:18;;;;;;;5.63;4.73;;;;;;;;;;5056979;27;87864;-66
2022/09/23 02:35:48;;;;;;;5.63;4.80;;;;;;;;;;5039950;27;88542;-65
2022/09/23 02:38:18;;;;;;;7.60;4.77;;;;;;;;;;5042077;27;88670;-66
2022/09/23 02:40:49;;;;;;;5.87;4.43;;;;;;;;;;5041508;27;87493;-66
2022/09/23 02:43:18;;;;;;;9.07;5.87;;;;;;;;;;5042244;27;87997;-66
2022/09/23 02:45:47;;;;;;;8.80;6.20;;;;;;;;;;5044560;27;87191;-66
2022/09/23 02:48:17;;;;;;;6.40;4.80;;;;;;;;;;5061336;27;86986;-66
2022/09/23 02:50:46;;;;;;;6.80;4.20;;;;;;;;;;5044354;27;87003;-67
2022/09/23 02:53:16;;;;;;;11.10;5.43;;;;;;;;;;5038912;28;90061;-67
2022/09/23 02:55:44;;;;;;;7.10;5.17;;;;;;;;;;5040355;27;88566;-66
2022/09/23 02:58:12;;;;;;;7.20;4.67;;;;;;;;;;5053526;27;87009;-67
2022/09/23 03:00:43;;;;;;;6.87;4.57;;;;;;;;;;5051903;27;87195;-66
2022/09/23 03:03:17;;;;;;;6.90;4.53;;;;;;;;;;5056694;27;88566;-66
2022/09/23 03:05:46;;;;;;;9.23;4.93;;;;;;;;;;5049549;27;89263;-66
2022/09/23 03:08:20;;;;;;;7.27;4.60;;;;;;;;;;5060675;27;87053;-66
2022/09/23 03:10:51;;;;;;;7.00;5.07;;;;;;;;;;5047986;27;86320;-66
2022/09/23 03:13:21;;;;;;;6.47;3.93;;;;;;;;;;5050383;27;88713;-67
2022/09/23 03:16:00;;;;;;;6.50;5.27;;;;;;;;;;5053862;27;88791;-66
2022/09/23 03:18:31;;;;;;;5.73;4.33;;;;;;;;;;5059810;27;87925;-66
2022/09/23 03:20:59;;;;;;;7.70;4.40;;;;;;;;;;5035845;27;87244;-66
2022/09/23 03:23:29;;;;;;;6.27;4.73;;;;;;;;;;5058845;27;87993;-67
2022/09/23 03:25:58;;;;;;;7.67;4.57;;;;;;;;;;5060400;27;87771;-66
2022/09/23 03:28:26;;;;;;;6.20;4.80;;;;;;;;;;5044199;28;86984;-67
2022/09/23 03:30:54;;;;;;;7.10;4.20;;;;;;;;;;5056262;27;86936;-67
2022/09/23 03:33:23;;;;;;;6.93;4.07;;;;;;;;;;5047962;27;89486;-66
2022/09/23 03:38:45;;;;;;;8.23;5.07;;;;;;;;;;5049414;27;87102;-67
2022/09/23 03:41:15;;;;;;;6.77;4.40;;;;;;;;;;5055101;27;87049;-66
2022/09/23 03:43:43;;;;;;;5.60;4.10;;;;;;;;;;5047692;27;88858;-67
2022/09/23 03:46:12;;;;;;;6.43;3.80;;;;;;;;;;5060337;27;89711;-66
2022/09/23 03:48:40;;;;;;;6.77;4.00;;;;;;;;;;5044695;27;86759;-66
2022/09/23 03:51:09;;;;;;;5.67;4.13;;;;;;;;;;5056633;27;86940;-67
2022/09/23 03:53:38;;;;;;;4.90;3.50;;;;;;;;;;5064207;27;89000;-66
2022/09/23 03:56:10;;;;;;;4.60;3.40;;;;;;;;;;5048680;27;88299;-67
2022/09/23 03:58:38;;;;;;;5.80;4.80;;;;;;;;;;5053900;27;87091;-66
2022/09/23 04:01:07;;;;;;;5.93;4.47;;;;;;;;;;5060187;27;85996;-66
2022/09/23 04:03:35;;;;;;;7.80;5.10;;;;;;;;;;5063237;27;88039;-67
2022/09/23 04:06:04;;;;;;;6.77;4.27;;;;;;;;;;5043106;27;89265;-66
2022/09/23 04:08:32;;;;;;;5.80;4.17;;;;;;;;;;5041893;27;87961;-66
2022/09/23 04:11:00;;;;;;;4.77;3.63;;;;;;;;;;5058463;27;87042;-66
2022/09/23 04:13:30;;;;;;;5.37;4.07;;;;;;;;;;5057596;27;89001;-66
2022/09/23 04:15:58;;;;;;;6.53;4.47;;;;;;;;;;5048573;27;89078;-67
2022/09/23 04:18:26;;;;;;;5.07;3.97;;;;;;;;;;5043607;27;86798;-67
2022/09/23 04:20:57;;;;;;;5.17;3.83;;;;;;;;;;5054217;27;87906;-67
2022/09/23 04:23:25;;;;;;;5.93;3.93;;;;;;;;;;5049044;27;88944;-66
2022/09/23 04:25:54;;;;;;;5.87;3.83;;;;;;;;;;5056944;27;89175;-66
2022/09/23 04:28:22;;;;;;;3.73;3.33;;;;;;;;;;5043486;28;87097;-66
2022/09/23 04:30:53;;;;;;;5.37;3.80;;;;;;;;;;5045979;27;87439;-66
2022/09/23 04:33:21;;;;;;;5.57;3.67;;;;;;;;;;5044206;27;90047;-66
2022/09/23 04:35:50;;;;;;;6.23;4.10;;;;;;;;;;5049711;27;89811;-67
2022/09/23 04:38:18;;;;;;;6.73;3.63;;;;;;;;;;5061690;27;87051;-66
2022/09/23 04:40:47;;;;;;;5.10;3.47;;;;;;;;;;5057739;27;86832;-66
2022/09/23 04:43:15;;;;;;;5.60;3.93;;;;;;;;;;5052133;27;89272;-67
2022/09/23 04:45:44;;;;;;;5.10;3.63;;;;;;;;;;5055504;27;88887;-66
2022/09/23 04:48:13;;;;;;;4.80;3.70;;;;;;;;;;5055452;27;87069;-67
2022/09/23 04:50:41;;;;;;;5.63;4.17;;;;;;;;;;5057021;27;86295;-66
2022/09/23 04:53:10;;;;;;;5.37;3.60;;;;;;;;;;5039889;27;88792;-66
2022/09/23 04:55:38;;;;;;;5.90;4.10;;;;;;;;;;5043691;27;90598;-67
2022/09/23 04:58:07;;;;;;;5.97;3.70;;;;;;;;;;5050406;27;88016;-66
2022/09/23 05:00:36;;;;;;;5.70;3.27;;;;;;;;;;5046498;27;86977;-68
2022/09/23 05:03:04;;;;;;;5.90;3.60;;;;;;;;;;5059563;27;88054;-67
2022/09/23 05:05:34;;;;;;;3.97;3.13;;;;;;;;;;5061433;27;88920;-67
2022/09/23 05:08:02;;;;;;;4.03;3.40;;;;;;;;;;5061874;27;87474;-66
2022/09/23 05:10:31;;;;;;;3.87;3.37;;;;;;;;;;5061823;27;87189;-66
2022/09/23 05:12:59;;;;;;;5.77;3.40;;;;;;;;;;5060703;27;89165;-66
2022/09/23 05:15:28;;;;;;;4.83;3.50;;;;;;;;;;5061385;27;87745;-66
2022/09/23 05:17:57;;;;;;;4.10;2.60;;;;;;;;;;5061513;27;86993;-66
2022/09/23 05:20:26;;;;;;;5.10;3.33;;;;;;;;;;5061611;27;86917;-66
2022/09/23 05:22:55;;;;;;;4.00;3.10;;;;;;;;;;5060415;27;89735;-66
2022/09/23 05:25:24;;;;;;;4.47;3.23;;;;;;;;;;5060854;27;88895;-66
2022/09/23 05:27:52;;;;;;;7.20;3.37;;;;;;;;;;5062299;27;87067;-66
2022/09/23 05:30:20;;;;;;;5.77;3.10;;;;;;;;;;5061319;27;86964;-67
2022/09/23 05:32:48;;;;;;;3.80;2.73;;;;;;;;;;5062343;27;89164;-67
2022/09/23 05:35:16;;;;;;;4.20;2.77;;;;;;;;;;5060948;27;88700;-66
2022/09/23 05:37:45;;;;;;;4.40;3.37;;;;;;;;;;5062447;27;87010;-67
2022/09/23 05:40:14;;;;;;;3.83;2.70;;;;;;;;;;5062681;27;86385;-67
2022/09/23 05:42:43;;;;;;;3.50;3.03;;;;;;;;;;5055176;27;89173;-67
2022/09/23 05:45:11;;;;;;;3.93;2.27;;;;;;;;;;5062574;27;88762;-67
2022/09/23 05:47:39;;;;;;;3.23;2.80;;;;;;;;;;5062079;27;88024;-66
2022/09/23 05:50:08;;;;;;;5.53;3.60;;;;;;;;;;5062834;27;87077;-67
2022/09/23 05:52:36;;;;;;;4.33;3.10;;;;;;;;;;5067468;27;88008;-67
2022/09/23 05:55:05;;;;;;;4.47;2.80;;;;;;;;;;5066178;27;89011;-67
2022/09/23 05:57:34;;;;;;;4.03;2.27;;;;;;;;;;5073550;27;87157;-66
2022/09/23 06:00:03;;;;;;;5.00;2.77;;;;;;;;;;5066903;27;87031;-67
2022/09/23 06:02:31;;;;;;;4.47;3.17;;;;;;;;;;5066126;27;89535;-67
2022/09/23 06:05:00;;;;;;;5.57;2.90;;;;;;;;;;5065582;27;88993;-67
2022/09/23 06:07:31;;;;;;;5.73;3.43;;;;;;;;;;5041306;27;86853;-66
2022/09/23 06:09:59;;;;;;;4.10;3.00;;;;;;;;;;5059107;27;87016;-66
2022/09/23 06:12:27;;;;;;;4.73;2.33;;;;;;;;;;5048659;27;89903;-65
2022/09/23 06:14:57;;;;;;;3.50;2.83;;;;;;;;;;5046950;27;89724;-66
2022/09/23 06:17:26;;;;;;;3.50;2.63;;;;;;;;;;5053304;27;87080;-65
2022/09/23 06:19:54;;;;;;;5.67;2.60;;;;;;;;;;5044757;27;87091;-67
2022/09/23 06:22:25;;;;;;;4.77;2.97;;;;;;;;;;5061006;27;89489;-67
2022/09/23 06:24:53;;;;;;;3.43;2.23;;;;;;;;;;5058045;27;88891;-68
2022/09/23 06:27:21;;;;;;;2.93;2.13;;;;;;;;;;5046899;27;87152;-67
2022/09/23 06:29:51;;;;;;;3.90;2.07;;;;;;;;;;5044718;27;86444;-68
2022/09/23 06:32:21;;;;;;;2.90;1.87;;;;;;;;;;5047157;27;89694;-67
2022/09/23 06:34:52;;;;;;;3.07;2.00;;;;;;;;;;5047729;27;89003;-67
2022/09/23 06:37:22;;;;;;;3.50;1.60;;;;;;;;;;5044483;27;88035;-67
2022/09/23 06:39:51;;;;;;;3.77;2.00;;;;;;;;;;5048158;27;86985;-67
2022/09/23 06:42:19;;;;;;;5.53;2.27;;;;;;;;;;5045485;27;89068;-66
2022/09/23 06:44:47;;;;;;;3.27;1.70;;;;;;;;;;5053110;27;89568;-66
2022/09/23 06:47:16;;;;;;;4.07;1.87;;;;;;;;;;5053120;27;87228;-66
2022/09/23 06:49:45;;;;;;;2.97;2.07;;;;;;;;;;5063741;27;86918;-64
2022/09/23 06:52:14;;;;;;;2.77;2.17;;;;;;;;;;5043975;27;88925;-67
2022/09/23 06:54:42;;;;;;;2.37;1.53;;;;;;;;;;5043933;28;89115;-67
2022/09/23 06:57:10;;;;;;;3.33;2.30;;;;;;;;;;5044518;28;86852;-68
2022/09/23 06:59:38;;;;;;;2.90;2.37;;;;;;;;;;5046680;27;86991;-68
2022/09/23 07:02:07;;;;;;;3.43;1.80;;;;;;;;;;5046638;27;89983;-68
2022/09/23 07:04:35;;;;;;;2.80;2.07;;;;;;;;;;5064031;27;89811;-70
2022/09/23 07:07:05;;;;;;;4.13;2.27;;;;;;;;;;5062617;27;87206;-68
2022/09/23 07:09:33;;;;;;;3.47;2.17;;;;;;;;;;5063803;27;86975;-70
2022/09/23 07:12:02;;;;;;;3.70;2.23;;;;;;;;;;5064540;27;89073;-68
2022/09/23 07:14:30;;;;;;;2.77;2.10;;;;;;;;;;5062435;27;88049;-70
2022/09/23 07:16:59;;;;;;;3.90;2.20;;;;;;;;;;5063295;27;87135;-67
2022/09/23 07:19:27;;;;;;;3.03;2.37;;;;;;;;;;5063015;27;86261;-68
2022/09/23 07:21:55;;;;;;;3.47;2.20;;;;;;;;;;5063713;27;88835;-72
2022/09/23 07:24:25;;;;;;;3.13;2.20;;;;;;;;;;5064082;27;88839;-69
2022/09/23 07:26:54;;;;;;;5.10;3.30;;;;;;;;;;5063893;27;87987;-70
2022/09/23 07:29:22;;;;;;;6.37;3.20;;;;;;;;;;5062899;27;86845;-71
2022/09/23 07:31:50;;;;;;;3.57;3.10;;;;;;;;;;5063449;27;89325;-69
2022/09/23 07:34:21;;;;;;;4.80;3.70;;;;;;;;;;5064124;27;92235;-69
2022/09/23 07:36:49;;;;;;;6.50;3.63;;;;;;;;;;5063245;27;86982;-72
2022/09/23 07:39:17;;;;;;;6.17;3.43;;;;;;;;;;5064247;27;87062;-71
2022/09/23 07:41:48;;;;;;;4.90;3.63;;;;;;;;;;5064385;27;88858;-69
2022/09/23 07:44:17;;;;;;;7.37;4.40;;;;;;;;;;5063485;27;87762;-77
2022/09/23 07:46:46;;;;;;;5.47;3.77;;;;;;;;;;5063415;27;87065;-75
2022/09/23 07:49:14;;;;;;;5.70;4.37;;;;;;;;;;5064046;27;86893;-70
2022/09/23 07:51:44;;;;;;;7.87;4.27;;;;;;;;;;5054414;27;90002;-70
2022/09/23 07:54:13;;;;;;;9.63;4.53;;;;;;;;;;5059242;27;90196;-70
2022/09/23 07:56:41;;;;;;;7.57;4.57;;;;;;;;;;5063436;27;87091;-70
2022/09/23 07:59:14;;;;;;;6.63;4.47;;;;;;;;;;5061478;27;86961;-71
2022/09/23 08:01:43;;;;;;;7.83;4.87;;;;;;;;;;5068394;27;87950;-71
2022/09/23 08:04:12;;;;;;;9.60;4.87;;;;;;;;;;5064231;27;88715;-69
2022/09/23 08:06:41;;;;;;;8.83;5.70;;;;;;;;;;5063797;27;86935;-69
2022/09/23 08:09:10;;;;;;;9.50;5.73;;;;;;;;;;5052237;27;86307;-68
2022/09/23 08:11:40;;;;;;;10.87;6.00;;;;;;;;;;5042909;28;89102;-70
2022/09/23 08:14:09;;;;;;;7.40;5.40;;;;;;;;;;5042418;28;87654;-66
2022/09/23 08:16:39;;;;;;;8.40;5.03;;;;;;;;;;5042443;28;88143;-68
2022/09/23 08:19:07;;;;;;;12.77;6.17;;;;;;;;;;5043123;28;87045;-68
2022/09/23 08:21:38;;;;;;;12.73;6.30;;;;;;;;;;5043429;28;88974;-70
2022/09/23 08:24:06;;;;;;;17.50;7.70;;;;;;;;;;5043282;28;88904;-68
2022/09/23 08:26:35;;;;;;;11.83;7.07;;;;;;;;;;5043856;28;87016;-68
2022/09/23 08:29:03;;;;;;;12.17;7.23;;;;;;;;;;5042608;28;87040;-69
2022/09/23 08:31:31;;;;;;;16.77;6.73;;;;;;;;;;5042516;27;89716;-67
2022/09/23 08:34:01;;;;;;;13.03;8.17;;;;;;;;;;5043232;28;87425;-68
2022/09/23 08:36:29;;;;;;;16.60;8.13;;;;;;;;;;5043209;28;86860;-71
2022/09/23 08:38:58;;;;;;;13.37;8.43;;;;;;;;;;5043120;28;86935;-69
2022/09/23 08:41:28;;;;;;;12.83;7.90;;;;;;;;;;5042063;28;89921;-71
2022/09/23 08:43:57;;;;;;;11.93;8.90;;;;;;;;;;5042237;28;90094;-70
2022/09/23 08:46:26;;;;;;;17.47;9.13;;;;;;;;;;5042974;28;87115;-70
2022/09/23 08:48:54;;;;;;;13.43;10.07;;;;;;;;;;5043012;28;87057;-68
2022/09/23 08:51:26;;;;;;;15.70;9.10;;;;;;;;;;5041666;28;89074;-66
2022/09/23 08:53:54;;;;;;;18.33;9.40;;;;;;;;;;5042071;27;87718;-70
2022/09/23 08:56:23;;;;;;;15.83;10.43;;;;;;;;;;5041689;28;86935;-69
2022/09/23 08:58:55;;;;;;;19.87;10.73;;;;;;;;;;5044427;27;86333;-71
2022/09/23 09:01:23;;;;;;;19.20;10.57;;;;;;;;;;5053629;27;89093;-69
2022/09/23 09:03:53;;;;;;;19.77;10.10;;;;;;;;;;5067637;27;89125;-67
2022/09/23 09:06:22;;;;;;;19.03;9.80;;;;;;;;;;5057811;27;88331;-66
2022/09/23 09:08:55;;;;;;;18.50;10.97;;;;;;;;;;5059192;27;87252;-64
2022/09/23 09:11:24;;;;;;;19.33;10.73;;;;;;;;;;5051202;27;89009;-70
2022/09/23 09:13:54;;;;;;;13.10;9.30;;;;;;;;;;5051660;27;88671;-64
2022/09/23 09:16:27;;;;;;;17.53;10.30;;;;;;;;;;5062508;27;87463;-67
2022/09/23 09:19:18;;;;;;;22.47;10.73;;;;;;;;;;5059962;27;87011;-67
2022/09/23 09:21:47;;;;;;;18.97;10.80;;;;;;;;;;5052344;27;88324;-65
2022/09/23 09:24:22;;;;;;;19.37;10.27;;;;;;;;;;5051684;27;88709;-68
2022/09/23 09:26:51;;;;;;;15.07;10.17;;;;;;;;;;5050308;27;87184;-67
2022/09/23 09:29:20;;;;;;;15.80;9.33;;;;;;;;;;5047292;27;87314;-69
2022/09/23 09:32:02;;;;;;;17.00;10.07;;;;;;;;;;5057677;27;89782;-71
2022/09/23 09:34:31;;;;;;;21.23;10.23;;;;;;;;;;5064847;27;89892;-69
2022/09/23 09:37:05;;;;;;;17.60;10.10;;;;;;;;;;5060162;27;87060;-67
2022/09/23 09:39:36;;;;;;;16.77;9.30;;;;;;;;;;5064020;27;87066;-70
2022/09/23 09:42:05;;;;;;;15.30;9.23;;;;;;;;;;5065358;27;89095;-68
2022/09/23 09:44:35;;;;;;;13.43;8.80;;;;;;;;;;5062565;27;88908;-69
2022/09/23 09:47:15;;;;;;;16.17;9.50;;;;;;;;;;5052679;27;87354;-70
2022/09/23 09:49:46;;;;;;;13.70;8.43;;;;;;;;;;5050208;27;86335;-72
2022/09/23 09:52:19;;;;;;;16.53;9.40;;;;;;;;;;5062261;27;91058;-72
2022/09/23 09:54:49;;;;;;;16.23;9.67;;;;;;;;;;5076189;27;88807;-73
2022/09/23 09:57:19;;;;;;;19.77;9.40;;;;;;;;;;5082475;27;87882;-71
2022/09/23 09:59:47;;;;;;;17.53;10.70;;;;;;;;;;5082528;27;87001;-72
2022/09/23 10:02:22;;;;;;;18.20;9.37;;;;;;;;;;5073298;27;89294;-72
2022/09/23 10:04:54;;;;;;;19.27;9.20;;;;;;;;;;5082218;27;88802;-72
2022/09/23 10:07:25;;;;;;;17.83;9.70;;;;;;;;;;5068255;27;86838;-73
2022/09/23 10:09:54;;;;;;;21.27;8.60;;;;;;;;;;5061653;27;86950;-71
2022/09/23 10:12:44;;;;;;;14.27;8.97;;;;;;;;;;5060080;27;88892;-70
2022/09/23 10:15:25;;;;;;;13.30;8.63;;;;;;;;;;5060523;27;88881;-72
2022/09/23 10:17:53;;;;;;;19.50;9.37;;;;;;;;;;5060058;27;86926;-72
2022/09/23 10:20:21;;;;;;;17.17;8.27;;;;;;;;;;5058801;27;88858;-71
2022/09/23 10:22:50;;;;;;;19.90;8.50;;;;;;;;;;5059211;27;89926;-71
2022/09/23 10:25:21;;;;;;;14.40;8.47;;;;;;;;;;5062350;27;89751;-69
2022/09/23 10:27:49;;;;;;;14.13;8.37;;;;;;;;;;5049228;27;87024;-70
2022/09/23 10:30:21;;;;;;;18.30;8.37;;;;;;;;;;5048682;27;86995;-70
2022/09/23 10:32:49;;;;;;;21.10;8.43;;;;;;;;;;5056306;27;87514;-69
2022/09/23 10:35:19;;;;;;;19.00;8.13;;;;;;;;;;5057675;27;88834;-64
2022/09/23 10:37:48;;;;;;;12.67;7.40;;;;;;;;;;5049243;27;87113;-68
2022/09/23 10:48:44;;;;;;;15.50;7.57;;;;;;;;;;5050360;27;88040;-70
2022/09/23 10:51:14;;;;;;;11.63;7.47;;;;;;;;;;5047780;27;86933;-71
2022/09/23 10:53:46;;;;;;;11.97;8.03;;;;;;;;;;5051069;27;88339;-71
2022/09/23 10:56:20;;;;;;;9.27;5.93;;;;;;;;;;5057927;27;89192;-72
2022/09/23 10:59:13;;;;;;;12.47;7.07;;;;;;;;;;5058298;27;87031;-71
2022/09/23 11:01:44;;;;;;;14.93;7.47;;;;;;;;;;5040911;27;87081;-69
2022/09/23 11:04:20;;;;;;;12.57;7.90;;;;;;;;;;5056186;27;88942;-70
2022/09/23 11:06:51;;;;;;;10.73;7.00;;;;;;;;;;5055828;27;91019;-68
2022/09/23 11:09:24;;;;;;;12.60;6.33;;;;;;;;;;5059623;27;87082;-62
2022/09/23 11:11:57;;;;;;;9.97;7.20;;;;;;;;;;5080908;27;87313;-64
2022/09/23 11:14:37;;;;;;;14.60;7.10;;;;;;;;;;5080785;27;89460;-63
2022/09/23 11:17:13;;;;;;;12.10;6.73;;;;;;;;;;5080995;27;89910;-63
2022/09/23 11:19:49;;;;;;;12.63;6.93;;;;;;;;;;5085416;27;86925;-63
2022/09/23 11:22:22;;;;;;;13.67;6.03;;;;;;;;;;5084783;27;86810;-64
2022/09/23 11:25:01;;;;;;;10.03;5.87;;;;;;;;;;5079929;27;91562;-64
2022/09/23 11:27:37;;;;;;;9.03;5.20;;;;;;;;;;5043901;28;88890;-64
2022/09/23 11:30:09;;;;;;;7.30;5.43;;;;;;;;;;5044127;28;86918;-64
2022/09/23 11:32:52;;;;;;;8.47;4.80;;;;;;;;;;5055845;27;87016;-64
2022/09/23 11:35:21;;;;;;;8.80;4.53;;;;;;;;;;5064259;27;89142;-64
2022/09/23 11:37:51;;;;;;;8.90;5.37;;;;;;;;;;5063839;27;90551;-64
2022/09/23 11:40:19;;;;;;;9.37;5.37;;;;;;;;;;5063882;27;87964;-64
2022/09/23 11:42:51;;;;;;;8.37;4.77;;;;;;;;;;5064343;27;86895;-64
2022/09/23 11:45:22;;;;;;;7.33;4.53;;;;;;;;;;5064028;27;91613;-62
2022/09/23 11:47:52;;;;;;;8.07;4.70;;;;;;;;;;5062089;27;88182;-63
2022/09/23 11:50:24;;;;;;;8.30;3.97;;;;;;;;;;5063230;27;87049;-64
2022/09/23 11:52:57;;;;;;;5.03;4.30;;;;;;;;;;5063957;27;86892;-63
2022/09/23 11:55:26;;;;;;;6.00;3.77;;;;;;;;;;5063946;27;89321;-63
2022/09/23 11:57:54;;;;;;;6.10;3.60;;;;;;;;;;5064322;27;88919;-64
2022/09/23 12:00:24;;;;;;;6.43;4.30;;;;;;;;;;5063921;27;87412;-64
2022/09/23 12:02:57;;;;;;;5.50;3.43;;;;;;;;;;5065177;27;87244;-63
2022/09/23 12:05:34;;;;;;;6.03;3.30;;;;;;;;;;5066185;27;90549;-63
2022/09/23 12:08:04;;;;;;;7.40;4.27;;;;;;;;;;5066096;27;89318;-63
2022/09/23 12:10:37;;;;;;;4.97;3.03;;;;;;;;;;5065661;27;86998;-64
2022/09/23 12:13:06;;;;;;;8.90;4.33;;;;;;;;;;5064530;27;86988;-63
2022/09/23 12:15:38;;;;;;;6.63;3.57;;;;;;;;;;5064121;27;89450;-63
2022/09/23 12:18:11;;;;;;;6.10;3.63;;;;;;;;;;5063523;27;89027;-63
2022/09/23 12:20:43;;;;;;;3.93;3.17;;;;;;;;;;5062617;27;87047;-64
2022/09/23 12:23:15;;;;;;;5.87;3.40;;;;;;;;;;5063650;27;86260;-63
2022/09/23 12:25:45;;;;;;;6.20;3.43;;;;;;;;;;5063733;27;88880;-63
2022/09/23 12:28:15;;;;;;;4.37;2.73;;;;;;;;;;5062285;27;88281;-64
2022/09/23 12:30:43;;;;;;;4.07;2.27;;;;;;;;;;5061418;27;87961;-64
2022/09/23 12:33:17;;;;;;;3.30;2.70;;;;;;;;;;5062282;27;87059;-64
2022/09/23 12:35:46;;;;;;;3.17;2.43;;;;;;;;;;5062436;27;88922;-64
2022/09/23 12:38:14;;;;;;;5.90;2.57;;;;;;;;;;5062178;27;88674;-63
2022/09/23 12:40:43;;;;;;;4.77;2.50;;;;;;;;;;5062508;27;87274;-64
2022/09/23 12:43:18;;;;;;;7.43;2.37;;;;;;;;;;5062687;27;87079;-63
2022/09/23 12:45:47;;;;;;;2.13;1.73;;;;;;;;;;5063274;27;90150;-63
2022/09/23 12:48:43;;;;;;;3.50;2.50;;;;;;;;;;5063411;27;91605;-63
2022/09/23 12:51:22;;;;;;;5.87;2.73;;;;;;;;;;5062714;27;87193;-63
2022/09/23 12:54:00;;;;;;;6.77;2.63;;;;;;;;;;5062684;27;86922;-63
2022/09/23 12:56:29;;;;;;;2.57;2.37;;;;;;;;;;5062372;27;92157;-63
2022/09/23 12:59:02;;;;;;;4.17;2.20;;;;;;;;;;5062728;27;89915;-64
2022/09/23 13:01:35;;;;;;;2.30;2.10;;;;;;;;;;5063299;27;87028;-64
2022/09/23 13:06:57;;;;;;;4.57;2.53;;;;;;;;;;5063298;27;88565;-64
2022/09/23 13:09:26;;;;;;;2.33;2.07;;;;;;;;;;5062329;27;89007;-64
2022/09/23 13:11:54;;;;;;;2.93;2.00;;;;;;;;;;5062936;27;86962;-64
2022/09/23 13:14:23;;;;;;;6.53;2.37;;;;;;;;;;5063124;27;86331;-63
2022/09/23 13:16:57;;;;;;;4.50;2.17;;;;;;;;;;5062838;27;89285;-63
2022/09/23 13:19:46;;;;;;;2.80;1.50;;;;;;;;;;5063137;27;87559;-63
2022/09/23 13:22:14;;;;;;;3.63;1.80;;;;;;;;;;5062057;27;88026;-64
2022/09/23 13:24:43;;;;;;;5.07;2.40;;;;;;;;;;5061571;27;86938;-64
2022/09/23 13:27:13;;;;;;;4.27;2.07;;;;;;;;;;5062248;27;89507;-64
2022/09/23 13:29:43;;;;;;;5.10;2.03;;;;;;;;;;5062315;27;88557;-64
2022/09/23 13:32:12;;;;;;;2.87;1.90;;;;;;;;;;5063333;27;87027;-63
2022/09/23 13:34:40;;;;;;;2.27;1.77;;;;;;;;;;5062575;27;87001;-64
2022/09/23 13:37:14;;;;;;;4.57;1.93;;;;;;;;;;5062470;27;88838;-63
2022/09/23 13:39:49;;;;;;;3.47;1.67;;;;;;;;;;5062657;27;88222;-63
2022/09/23 13:42:19;;;;;;;2.50;1.03;;;;;;;;;;5060752;27;86996;-63
2022/09/23 13:44:47;;;;;;;2.67;1.67;;;;;;;;;;5062141;27;86921;-64
2022/09/23 13:47:15;;;;;;;2.20;1.53;;;;;;;;;;5061448;27;90131;-64
2022/09/23 13:49:46;;;;;;;2.97;1.57;;;;;;;;;;5062525;27;90171;-64
2022/09/23 13:52:23;;;;;;;3.03;1.80;;;;;;;;;;5062526;27;86962;-63
2022/09/23 13:54:52;;;;;;;1.67;1.40;;;;;;;;;;5062357;27;87004;-62
2022/09/23 13:57:26;;;;;;;2.80;1.67;;;;;;;;;;5062284;27;87742;-64
2022/09/23 13:59:54;;;;;;;3.13;1.77;;;;;;;;;;5061984;27;89233;-63
2022/09/23 14:02:24;;;;;;;3.63;1.87;;;;;;;;;;5062155;27;87096;-64
2022/09/23 14:04:52;;;;;;;3.77;2.00;;;;;;;;;;5062577;27;86013;-67
2022/09/23 14:07:23;;;;;;;2.27;1.37;;;;;;;;;;5061827;27;88808;-64
2022/09/23 14:09:53;;;;;;;3.17;1.87;;;;;;;;;;5060458;27;89053;-64
2022/09/23 14:12:21;;;;;;;2.33;2.10;;;;;;;;;;5060744;27;87820;-63
2022/09/23 14:14:50;;;;;;;1.70;1.37;;;;;;;;;;5061891;27;86979;-63
2022/09/23 14:17:20;;;;;;;1.87;1.60;;;;;;;;;;5061652;27;89167;-63
2022/09/23 14:19:48;;;;;;;1.87;1.60;;;;;;;;;;5061512;27;88810;-64
2022/09/23 14:22:24;;;;;;;1.97;1.50;;;;;;;;;;5061962;27;86993;-64
2022/09/23 14:24:52;;;;;;;1.60;1.30;;;;;;;;;;5061748;27;87039;-64
2022/09/23 14:27:22;;;;;;;5.83;1.90;;;;;;;;;;5061880;27;87820;-64
2022/09/23 14:29:50;;;;;;;1.03;0.97;;;;;;;;;;5061710;27;87707;-64
2022/09/23 14:32:19;;;;;;;2.27;1.53;;;;;;;;;;5061667;27;87709;-63
2022/09/23 14:34:50;;;;;;;1.43;1.33;;;;;;;;;;5061428;27;86987;-65
2022/09/23 14:40:16;;;;;;;6.20;2.20;;;;;;;;;;5048590;27;89891;-64
2022/09/23 14:42:47;;;;;;;1.70;1.47;;;;;;;;;;5040557;28;87187;-64
2022/09/23 14:45:18;;;;;;;2.13;1.53;;;;;;;;;;5041392;28;87461;-64
2022/09/23 14:47:48;;;;;;;1.73;1.10;;;;;;;;;;5041398;28;89133;-64
2022/09/23 14:53:04;;;;;;;4.43;1.90;;;;;;;;;;5042880;27;86970;-64
2022/09/23 14:55:32;;;;;;;2.30;1.73;;;;;;;;;;5045397;28;86258;-64
2022/09/23 14:58:02;;;;;;;2.23;1.50;;;;;;;;;;5044497;28;88858;-64
2022/09/23 15:00:30;;;;;;;2.60;1.40;;;;;;;;;;5044620;28;87334;-64
2022/09/23 15:02:59;;;;;;;3.87;1.40;;;;;;;;;;5043456;28;87808;-64
2022/09/23 15:05:31;;;;;;;1.80;1.20;;;;;;;;;;5044673;28;86984;-64
2022/09/23 15:08:01;;;;;;;4.27;1.87;;;;;;;;;;5043020;28;90908;-64
2022/09/23 15:10:30;;;;;;;3.43;1.43;;;;;;;;;;5057609;27;88831;-64
2022/09/23 15:13:02;;;;;;;1.53;1.33;;;;;;;;;;5063830;27;86986;-64
2022/09/23 15:15:30;;;;;;;1.93;0.93;;;;;;;;;;5064678;27;87000;-64
2022/09/23 15:18:03;;;;;;;2.33;1.50;;;;;;;;;;5063846;27;88617;-64